ADDS METAR Data INFO
IDs: Format: Raw Decoded Include TAF

Data at: 1058 UTC 18 Aug 2017

KEMM 181055Z AUTO 34009KT 10SM 07/01 A3033 RMK AO2
KEMM 181035Z AUTO 35008KT 10SM 06/02 A3033 RMK AO2
KEMM 181015Z AUTO 35007KT 10SM 06/02 A3033 RMK AO2
KEMM 180955Z AUTO 34007KT 10SM 06/02 A3033 RMK AO2
KEMM 180935Z AUTO 34007KT 10SM 07/02 A3033 RMK AO2
KEMM 180915Z AUTO 35009KT 10SM 08/02 A3033 RMK AO2
KEMM 180855Z AUTO 34010KT 10SM 07/01 A3033 RMK AO2
KEMM 180835Z AUTO 35008KT 10SM 09/01 A3033 RMK AO2
KEMM 180815Z AUTO 33010KT 10SM 11/00 A3034 RMK AO2
KEMM 180755Z AUTO 32008KT 10SM 11/00 A3034 RMK AO2
KEMM 180735Z AUTO 32005KT 10SM 10/00 A3034 RMK AO2
KEMM 180715Z AUTO 31007KT 10SM 11/00 A3034 RMK AO2
KEMM 180655Z AUTO 33008KT 10SM 11/00 A3034 RMK AO2
KEMM 180635Z AUTO 00000KT 10SM 12/00 A3034 RMK AO2
KEMM 180615Z AUTO 05003KT 10SM 12/01 A3034 RMK AO2
KEMM 180555Z AUTO 33008KT 10SM 13/00 A3033 RMK AO2
KEMM 180535Z AUTO 00000KT 10SM 13/00 A3034 RMK AO2
KEMM 180515Z AUTO 05003KT 10SM 13/00 A3034 RMK AO2
KEMM 180455Z AUTO 34008KT 10SM 14/00 A3034 RMK AO2
KEMM 180435Z AUTO 34006KT 10SM 14/00 A3034 RMK AO2
KEMM 180415Z AUTO 34007KT 10SM A3034 RMK AO2
KEMM 180355Z AUTO 35007KT 10SM A3033 RMK AO2
KEMM 180335Z AUTO 33008KT 10SM A3033 RMK AO2
KEMM 180315Z AUTO 35004KT 10SM A3032 RMK AO2
KEMM 180255Z AUTO 28006KT 10SM A3031 RMK AO2
KEMM 180235Z AUTO 27007KT 10SM A3031 RMK AO2
KEMM 180215Z AUTO 27008KT 10SM A3030 RMK AO2
KEMM 180155Z AUTO 27008KT 10SM A3030 RMK AO2
KEMM 180135Z AUTO 28011KT 10SM 22/M02 A3030 RMK AO2
KEMM 180115Z AUTO 29010G18KT 10SM 22/M01 A3028 RMK AO2
KEMM 180055Z AUTO 28013G20KT 10SM A3028 RMK AO2
KEMM 180035Z AUTO 27015G20KT 10SM A3028 RMK AO2
KEMM 180015Z AUTO 28011G22KT 10SM A3028 RMK AO2
KEMM 172355Z AUTO 27015G25KT 10SM 23/M02 A3028 RMK AO2
KEMM 172335Z AUTO 26015G24KT 10SM 24/M01 A3028 RMK AO2
KEMM 172315Z AUTO 27021G26KT 10SM 24/M01 A3028 RMK AO2
KEMM 172255Z AUTO 28017G29KT 10SM A3028 RMK AO2
KEMM 172235Z AUTO 27022G25KT 10SM 25/M01 A3028 RMK AO2
KEMM 172215Z AUTO 26020G25KT 10SM 25/M01 A3028 RMK AO2
KEMM 172155Z AUTO 27019G26KT 10SM 25/00 A3028 RMK AO2
KEMM 172135Z AUTO 26023G32KT 10SM 25/00 A3028 RMK AO2
KEMM 172115Z AUTO 24022G30KT 10SM 24/00 A3028 RMK AO2
KEMM 172055Z AUTO 27018G34KT 10SM 25/00 A3028 RMK AO2
KEMM 172035Z AUTO 27023G28KT 10SM 25/00 A3029 RMK AO2
KEMM 172015Z AUTO 26019G28KT 10SM 24/00 A3029 RMK AO2
KEMM 171955Z AUTO 27015G28KT 10SM 23/00 A3029 RMK AO2
KEMM 171935Z AUTO 26020G26KT 10SM 23/00 A3030 RMK AO2
KEMM 171915Z AUTO 25015G26KT 10SM 23/01 A3030 RMK AO2
KEMM 171855Z AUTO 24019G24KT 10SM 23/01 A3030 RMK AO2
KEMM 171835Z AUTO 28014G24KT 10SM 22/01 A3031 RMK AO2
KEMM 171815Z AUTO 27017G23KT 10SM 22/01 A3031 RMK AO2
KEMM 171755Z AUTO 26015G21KT 10SM 22/00 A3031 RMK AO2
KEMM 171735Z AUTO 25012G20KT 10SM 22/00 A3032 RMK AO2
KEMM 171715Z AUTO 25013G20KT 10SM 21/00 A3032 RMK AO2
KEMM 171655Z AUTO 25012KT 10SM 21/00 A3032 RMK AO2
KEMM 171635Z AUTO 26011G16KT 10SM 21/00 A3032 RMK AO2
KEMM 171615Z AUTO 27005KT 10SM 20/02 A3032 RMK AO2
KEMM 171555Z AUTO 00000KT 10SM 16/03 A3032 RMK AO2
KEMM 171535Z AUTO 36004KT 10SM 16/03 A3031 RMK AO2
KEMM 171515Z AUTO 35007KT 10SM 14/05 A3032 RMK AO2
KEMM 171455Z AUTO 35006KT 10SM 13/04 A3031 RMK AO2
KEMM 171435Z AUTO 35006KT 10SM 12/05 A3031 RMK AO2
KEMM 171415Z AUTO 35005KT 10SM 10/05 A3031 RMK AO2
KEMM 171355Z AUTO 34006KT 10SM 10/03 A3030 RMK AO2
KEMM 171335Z AUTO 34006KT 10SM 09/03 A3030 RMK AO2
KEMM 171315Z AUTO 35011KT 10SM 08/02 A3030 RMK AO2
KEMM 171255Z AUTO 35011KT 10SM 07/02 A3029 RMK AO2
KEMM 171235Z AUTO 35005KT 10SM 07/02 A3028 RMK AO2
KEMM 171215Z AUTO 35010KT 10SM 07/02 A3028 RMK AO2
KEMM 171155Z AUTO 35010KT 10SM 08/02 A3028 RMK AO2
KEMM 171135Z AUTO 34009KT 10SM 08/02 A3028 RMK AO2
KEMM 171115Z AUTO 34007KT 10SM 08/02 A3027 RMK AO2
KEMM 171055Z AUTO 35006KT 10SM 08/03 A3026 RMK AO2
KEMM 171035Z AUTO 34006KT 10SM 09/03 A3026 RMK AO2
KEMM 171015Z AUTO 34007KT 10SM 09/02 A3026 RMK AO2
KEMM 170955Z AUTO 34009KT 10SM 09/03 A3026 RMK AO2
KEMM 170935Z AUTO 35004KT 10SM 10/03 A3026 RMK AO2
KEMM 170915Z AUTO 29004KT 10SM 11/03 A3026 RMK AO2
KEMM 170855Z AUTO 01003KT 10SM 11/02 A3026 RMK AO2
KEMM 170835Z AUTO 33007KT 10SM 11/02 A3026 RMK AO2
KEMM 170815Z AUTO 32006KT 10SM 12/02 A3026 RMK AO2
KEMM 170755Z AUTO 33006KT 10SM 12/02 A3026 RMK AO2
KEMM 170735Z AUTO 33007KT 10SM 11/03 A3026 RMK AO2
KEMM 170715Z AUTO 32004KT 10SM 11/03 A3027 RMK AO2
KEMM 170655Z AUTO 33004KT 10SM 12/03 A3027 RMK AO2
KEMM 170635Z AUTO 32004KT 10SM 12/03 A3027 RMK AO2
KEMM 170615Z AUTO 34005KT 10SM 13/02 A3026 RMK AO2
KEMM 170555Z AUTO 36006KT 10SM 12/02 A3026 RMK AO2
KEMM 170535Z AUTO 34003KT 10SM 13/02 A3027 RMK AO2
KEMM 170515Z AUTO 33004KT 10SM 13/02 A3026 RMK AO2
KEMM 170455Z AUTO 35005KT 10SM 13/02 A3026 RMK AO2
KEMM 170435Z AUTO 36003KT 10SM 13/02 A3026 RMK AO2
KEMM 170415Z AUTO 33003KT 10SM 15/01 A3026 RMK AO2
KEMM 170355Z AUTO 00000KT 10SM 15/01 A3026 RMK AO2
KEMM 170335Z AUTO 33006KT 10SM 15/01 A3025 RMK AO2
KEMM 170315Z AUTO 33007KT 10SM 16/01 A3025 RMK AO2
KEMM 170255Z AUTO 33006KT 10SM 16/00 A3024 RMK AO2
KEMM 170235Z AUTO 32006KT 10SM 16/00 A3023 RMK AO2
KEMM 170215Z AUTO 32006KT 10SM 17/00 A3022 RMK AO2
KEMM 170155Z AUTO 31008KT 10SM 19/00 A3022 RMK AO2
KEMM 170135Z AUTO 32008KT 10SM 20/00 A3022 RMK AO2
KEMM 170115Z AUTO 31009KT 10SM 21/00 A3022 RMK AO2
KEMM 170055Z AUTO 31011G14KT 10SM 22/M01 A3022 RMK AO2
KEMM 170035Z AUTO 26009G16KT 10SM A3022 RMK AO2
KEMM 170015Z AUTO 26013G17KT 10SM A3022 RMK AO2
KEMM 162355Z AUTO 25014G20KT 10SM 23/M01 A3022 RMK AO2
KEMM 162335Z AUTO 31012G15KT 10SM 23/M01 A3022 RMK AO2
KEMM 162315Z AUTO 28011G17KT 10SM 22/M02 A3022 RMK AO2